sensor_id;sensor_type;location;lat;lon;timestamp;P1;durP1;ratioP1;P2;durP2;ratioP2
9848;SDS011;4963;51.444;6.528;2023-10-19T00:00:19;10.73;;;7.37;;
9848;SDS011;4963;51.444;6.528;2023-10-19T00:02:49;10.60;;;7.53;;
9848;SDS011;4963;51.444;6.528;2023-10-19T00:05:21;7.87;;;7.07;;
9848;SDS011;4963;51.444;6.528;2023-10-19T00:07:51;8.80;;;7.00;;
9848;SDS011;4963;51.444;6.528;2023-10-19T00:10:18;10.20;;;7.20;;
9848;SDS011;4963;51.444;6.528;2023-10-19T00:12:46;10.17;;;7.33;;
9848;SDS011;4963;51.444;6.528;2023-10-19T00:15:22;8.53;;;7.13;;
9848;SDS011;4963;51.444;6.528;2023-10-19T00:17:51;9.00;;;7.30;;
9848;SDS011;4963;51.444;6.528;2023-10-19T00:20:22;11.10;;;8.03;;
9848;SDS011;4963;51.444;6.528;2023-10-19T00:23:14;8.63;;;7.53;;
9848;SDS011;4963;51.444;6.528;2023-10-19T00:25:43;9.23;;;6.73;;
9848;SDS011;4963;51.444;6.528;2023-10-19T00:28:15;7.57;;;6.40;;
9848;SDS011;4963;51.444;6.528;2023-10-19T00:30:43;8.23;;;6.37;;
9848;SDS011;4963;51.444;6.528;2023-10-19T00:33:10;7.43;;;6.73;;
9848;SDS011;4963;51.444;6.528;2023-10-19T00:35:44;9.73;;;7.03;;
9848;SDS011;4963;51.444;6.528;2023-10-19T00:38:16;7.60;;;6.80;;
9848;SDS011;4963;51.444;6.528;2023-10-19T00:40:52;10.40;;;7.70;;
9848;SDS011;4963;51.444;6.528;2023-10-19T00:43:28;8.07;;;6.73;;
9848;SDS011;4963;51.444;6.528;2023-10-19T00:45:59;8.00;;;6.83;;
9848;SDS011;4963;51.444;6.528;2023-10-19T00:48:34;8.70;;;6.90;;
9848;SDS011;4963;51.444;6.528;2023-10-19T00:51:02;8.37;;;6.57;;
9848;SDS011;4963;51.444;6.528;2023-10-19T00:53:35;7.70;;;6.87;;
9848;SDS011;4963;51.444;6.528;2023-10-19T00:56:04;9.30;;;7.10;;
9848;SDS011;4963;51.444;6.528;2023-10-19T00:58:34;6.70;;;6.00;;
9848;SDS011;4963;51.444;6.528;2023-10-19T01:01:04;9.40;;;6.90;;
9848;SDS011;4963;51.444;6.528;2023-10-19T01:03:32;8.73;;;6.97;;
9848;SDS011;4963;51.444;6.528;2023-10-19T01:06:05;7.90;;;6.50;;
9848;SDS011;4963;51.444;6.528;2023-10-19T01:08:35;8.43;;;6.90;;
9848;SDS011;4963;51.444;6.528;2023-10-19T01:11:08;9.43;;;7.80;;
9848;SDS011;4963;51.444;6.528;2023-10-19T01:13:40;8.73;;;7.00;;
9848;SDS011;4963;51.444;6.528;2023-10-19T01:16:12;9.53;;;7.97;;
9848;SDS011;4963;51.444;6.528;2023-10-19T01:18:46;8.90;;;7.17;;
9848;SDS011;4963;51.444;6.528;2023-10-19T01:21:19;9.93;;;8.13;;
9848;SDS011;4963;51.444;6.528;2023-10-19T01:23:51;9.97;;;7.70;;
9848;SDS011;4963;51.444;6.528;2023-10-19T01:26:18;9.53;;;7.57;;
9848;SDS011;4963;51.444;6.528;2023-10-19T01:28:51;9.20;;;7.60;;
9848;SDS011;4963;51.444;6.528;2023-10-19T01:31:30;10.13;;;8.30;;
9848;SDS011;4963;51.444;6.528;2023-10-19T01:34:03;10.97;;;8.20;;
9848;SDS011;4963;51.444;6.528;2023-10-19T01:36:30;10.27;;;7.97;;
9848;SDS011;4963;51.444;6.528;2023-10-19T01:39:03;9.70;;;8.27;;
9848;SDS011;4963;51.444;6.528;2023-10-19T01:41:35;9.70;;;7.80;;
9848;SDS011;4963;51.444;6.528;2023-10-19T01:44:01;11.47;;;9.10;;
9848;SDS011;4963;51.444;6.528;2023-10-19T01:46:31;10.77;;;8.40;;
9848;SDS011;4963;51.444;6.528;2023-10-19T01:48:58;11.03;;;8.60;;
9848;SDS011;4963;51.444;6.528;2023-10-19T01:51:27;10.30;;;8.43;;
9848;SDS011;4963;51.444;6.528;2023-10-19T01:53:54;10.67;;;8.97;;
9848;SDS011;4963;51.444;6.528;2023-10-19T01:56:26;9.13;;;7.50;;
9848;SDS011;4963;51.444;6.528;2023-10-19T01:58:52;11.67;;;8.40;;
9848;SDS011;4963;51.444;6.528;2023-10-19T02:01:20;9.30;;;8.33;;
9848;SDS011;4963;51.444;6.528;2023-10-19T02:03:53;8.50;;;7.60;;
9848;SDS011;4963;51.444;6.528;2023-10-19T02:06:24;10.20;;;8.10;;
9848;SDS011;4963;51.444;6.528;2023-10-19T02:08:59;10.00;;;7.30;;
9848;SDS011;4963;51.444;6.528;2023-10-19T02:11:35;7.77;;;6.97;;
9848;SDS011;4963;51.444;6.528;2023-10-19T02:14:03;12.00;;;7.63;;
9848;SDS011;4963;51.444;6.528;2023-10-19T02:16:39;9.13;;;8.13;;
9848;SDS011;4963;51.444;6.528;2023-10-19T02:19:06;9.80;;;8.10;;
9848;SDS011;4963;51.444;6.528;2023-10-19T02:21:33;9.50;;;7.73;;
9848;SDS011;4963;51.444;6.528;2023-10-19T02:24:04;8.50;;;7.13;;
9848;SDS011;4963;51.444;6.528;2023-10-19T02:26:32;10.67;;;8.20;;
9848;SDS011;4963;51.444;6.528;2023-10-19T02:29:00;11.30;;;8.80;;
9848;SDS011;4963;51.444;6.528;2023-10-19T02:31:32;8.93;;;7.57;;
9848;SDS011;4963;51.444;6.528;2023-10-19T02:33:58;10.00;;;7.80;;
9848;SDS011;4963;51.444;6.528;2023-10-19T02:36:26;9.77;;;8.50;;
9848;SDS011;4963;51.444;6.528;2023-10-19T02:38:54;9.17;;;8.27;;
9848;SDS011;4963;51.444;6.528;2023-10-19T02:41:24;9.93;;;8.17;;
9848;SDS011;4963;51.444;6.528;2023-10-19T02:43:52;9.93;;;7.67;;
9848;SDS011;4963;51.444;6.528;2023-10-19T02:46:28;10.03;;;7.30;;
9848;SDS011;4963;51.444;6.528;2023-10-19T02:48:54;9.10;;;7.50;;
9848;SDS011;4963;51.444;6.528;2023-10-19T02:51:21;7.33;;;6.57;;
9848;SDS011;4963;51.444;6.528;2023-10-19T02:53:46;13.03;;;7.67;;
9848;SDS011;4963;51.444;6.528;2023-10-19T02:56:14;8.13;;;6.83;;
9848;SDS011;4963;51.444;6.528;2023-10-19T02:58:42;8.70;;;6.43;;
9848;SDS011;4963;51.444;6.528;2023-10-19T03:01:14;9.53;;;6.17;;
9848;SDS011;4963;51.444;6.528;2023-10-19T03:03:46;10.07;;;6.40;;
9848;SDS011;4963;51.444;6.528;2023-10-19T03:06:14;6.80;;;5.43;;
9848;SDS011;4963;51.444;6.528;2023-10-19T03:08:44;7.80;;;5.67;;
9848;SDS011;4963;51.444;6.528;2023-10-19T03:11:11;7.97;;;5.67;;
9848;SDS011;4963;51.444;6.528;2023-10-19T03:13:39;7.83;;;5.53;;
9848;SDS011;4963;51.444;6.528;2023-10-19T03:16:08;8.73;;;5.43;;
9848;SDS011;4963;51.444;6.528;2023-10-19T03:18:34;8.27;;;5.40;;
9848;SDS011;4963;51.444;6.528;2023-10-19T03:21:03;6.57;;;5.23;;
9848;SDS011;4963;51.444;6.528;2023-10-19T03:23:29;8.80;;;5.37;;
9848;SDS011;4963;51.444;6.528;2023-10-19T03:25:59;6.90;;;5.03;;
9848;SDS011;4963;51.444;6.528;2023-10-19T03:28:49;10.23;;;5.03;;
9848;SDS011;4963;51.444;6.528;2023-10-19T03:31:20;6.17;;;5.30;;
9848;SDS011;4963;51.444;6.528;2023-10-19T03:33:48;7.40;;;6.07;;
9848;SDS011;4963;51.444;6.528;2023-10-19T03:36:20;7.57;;;6.57;;
9848;SDS011;4963;51.444;6.528;2023-10-19T03:38:48;8.33;;;6.80;;
9848;SDS011;4963;51.444;6.528;2023-10-19T03:41:16;8.70;;;7.53;;
9848;SDS011;4963;51.444;6.528;2023-10-19T03:43:47;9.07;;;7.20;;
9848;SDS011;4963;51.444;6.528;2023-10-19T03:46:16;8.37;;;6.17;;
9848;SDS011;4963;51.444;6.528;2023-10-19T03:48:49;12.23;;;8.20;;
9848;SDS011;4963;51.444;6.528;2023-10-19T03:51:16;9.77;;;7.73;;
9848;SDS011;4963;51.444;6.528;2023-10-19T03:53:45;8.70;;;7.70;;
9848;SDS011;4963;51.444;6.528;2023-10-19T03:56:20;8.00;;;7.10;;
9848;SDS011;4963;51.444;6.528;2023-10-19T03:58:48;10.20;;;8.07;;
9848;SDS011;4963;51.444;6.528;2023-10-19T04:01:16;10.03;;;6.57;;
9848;SDS011;4963;51.444;6.528;2023-10-19T04:03:44;8.43;;;6.80;;
9848;SDS011;4963;51.444;6.528;2023-10-19T04:06:12;8.47;;;7.30;;
9848;SDS011;4963;51.444;6.528;2023-10-19T04:08:40;7.97;;;7.00;;
9848;SDS011;4963;51.444;6.528;2023-10-19T04:11:09;9.20;;;7.37;;
9848;SDS011;4963;51.444;6.528;2023-10-19T04:13:46;7.73;;;6.50;;
9848;SDS011;4963;51.444;6.528;2023-10-19T04:16:18;8.73;;;7.37;;
9848;SDS011;4963;51.444;6.528;2023-10-19T04:18:45;8.40;;;7.33;;
9848;SDS011;4963;51.444;6.528;2023-10-19T04:21:13;6.80;;;6.10;;
9848;SDS011;4963;51.444;6.528;2023-10-19T04:23:40;7.03;;;6.33;;
9848;SDS011;4963;51.444;6.528;2023-10-19T04:26:09;9.10;;;7.60;;
9848;SDS011;4963;51.444;6.528;2023-10-19T04:28:39;10.30;;;7.30;;
9848;SDS011;4963;51.444;6.528;2023-10-19T04:31:14;7.10;;;6.40;;
9848;SDS011;4963;51.444;6.528;2023-10-19T04:33:42;9.67;;;6.93;;
9848;SDS011;4963;51.444;6.528;2023-10-19T04:36:10;8.43;;;7.10;;
9848;SDS011;4963;51.444;6.528;2023-10-19T04:38:39;8.90;;;6.77;;
9848;SDS011;4963;51.444;6.528;2023-10-19T04:41:10;9.10;;;6.57;;
9848;SDS011;4963;51.444;6.528;2023-10-19T04:43:37;7.93;;;7.00;;
9848;SDS011;4963;51.444;6.528;2023-10-19T04:46:09;7.43;;;6.30;;
9848;SDS011;4963;51.444;6.528;2023-10-19T04:48:37;12.80;;;7.30;;
9848;SDS011;4963;51.444;6.528;2023-10-19T04:51:07;8.80;;;6.87;;
9848;SDS011;4963;51.444;6.528;2023-10-19T04:53:35;7.00;;;6.17;;
9848;SDS011;4963;51.444;6.528;2023-10-19T04:56:03;9.50;;;6.97;;
9848;SDS011;4963;51.444;6.528;2023-10-19T04:58:33;7.63;;;6.77;;
9848;SDS011;4963;51.444;6.528;2023-10-19T05:01:01;9.10;;;7.27;;
9848;SDS011;4963;51.444;6.528;2023-10-19T05:03:28;10.47;;;6.43;;
9848;SDS011;4963;51.444;6.528;2023-10-19T05:05:55;9.80;;;7.43;;
9848;SDS011;4963;51.444;6.528;2023-10-19T05:08:22;10.60;;;6.90;;
9848;SDS011;4963;51.444;6.528;2023-10-19T05:10:51;10.63;;;7.33;;
9848;SDS011;4963;51.444;6.528;2023-10-19T05:13:19;9.20;;;7.90;;
9848;SDS011;4963;51.444;6.528;2023-10-19T05:15:47;8.00;;;6.97;;
9848;SDS011;4963;51.444;6.528;2023-10-19T05:18:14;9.00;;;7.27;;
9848;SDS011;4963;51.444;6.528;2023-10-19T05:20:41;9.80;;;7.20;;
9848;SDS011;4963;51.444;6.528;2023-10-19T05:23:08;9.53;;;7.03;;
9848;SDS011;4963;51.444;6.528;2023-10-19T05:25:35;8.47;;;7.27;;
9848;SDS011;4963;51.444;6.528;2023-10-19T05:28:03;9.73;;;6.90;;
9848;SDS011;4963;51.444;6.528;2023-10-19T05:30:34;8.27;;;7.07;;
9848;SDS011;4963;51.444;6.528;2023-10-19T05:33:03;11.30;;;6.93;;
9848;SDS011;4963;51.444;6.528;2023-10-19T05:35:31;10.37;;;6.97;;
9848;SDS011;4963;51.444;6.528;2023-10-19T05:38:00;8.40;;;7.50;;
9848;SDS011;4963;51.444;6.528;2023-10-19T05:40:27;8.80;;;7.73;;
9848;SDS011;4963;51.444;6.528;2023-10-19T05:42:55;9.90;;;7.53;;
9848;SDS011;4963;51.444;6.528;2023-10-19T05:45:23;9.77;;;7.03;;
9848;SDS011;4963;51.444;6.528;2023-10-19T05:47:51;8.67;;;7.03;;
9848;SDS011;4963;51.444;6.528;2023-10-19T05:50:21;9.53;;;7.43;;
9848;SDS011;4963;51.444;6.528;2023-10-19T05:52:48;8.80;;;7.17;;
9848;SDS011;4963;51.444;6.528;2023-10-19T05:55:17;7.73;;;6.87;;
9848;SDS011;4963;51.444;6.528;2023-10-19T05:57:46;9.90;;;7.20;;
9848;SDS011;4963;51.444;6.528;2023-10-19T06:00:14;10.03;;;6.67;;
9848;SDS011;4963;51.444;6.528;2023-10-19T06:02:43;12.20;;;6.83;;
9848;SDS011;4963;51.444;6.528;2023-10-19T06:05:11;11.60;;;7.33;;
9848;SDS011;4963;51.444;6.528;2023-10-19T06:07:41;11.00;;;6.23;;
9848;SDS011;4963;51.444;6.528;2023-10-19T06:10:10;10.30;;;6.00;;
9848;SDS011;4963;51.444;6.528;2023-10-19T06:12:42;11.53;;;7.20;;
9848;SDS011;4963;51.444;6.528;2023-10-19T06:15:09;9.47;;;6.47;;
9848;SDS011;4963;51.444;6.528;2023-10-19T06:17:37;7.70;;;5.57;;
9848;SDS011;4963;51.444;6.528;2023-10-19T06:20:06;9.20;;;5.90;;
9848;SDS011;4963;51.444;6.528;2023-10-19T06:22:33;7.57;;;5.77;;
9848;SDS011;4963;51.444;6.528;2023-10-19T06:25:02;7.00;;;5.70;;
9848;SDS011;4963;51.444;6.528;2023-10-19T06:27:31;8.00;;;5.77;;
9848;SDS011;4963;51.444;6.528;2023-10-19T06:29:58;8.37;;;5.67;;
9848;SDS011;4963;51.444;6.528;2023-10-19T06:32:25;7.77;;;6.10;;
9848;SDS011;4963;51.444;6.528;2023-10-19T06:34:52;8.07;;;6.47;;
9848;SDS011;4963;51.444;6.528;2023-10-19T06:37:19;10.60;;;5.90;;
9848;SDS011;4963;51.444;6.528;2023-10-19T06:39:46;7.53;;;5.60;;
9848;SDS011;4963;51.444;6.528;2023-10-19T06:42:17;7.67;;;6.00;;
9848;SDS011;4963;51.444;6.528;2023-10-19T06:44:43;6.73;;;5.13;;
9848;SDS011;4963;51.444;6.528;2023-10-19T06:47:10;9.53;;;6.43;;
9848;SDS011;4963;51.444;6.528;2023-10-19T06:49:38;7.70;;;6.20;;
9848;SDS011;4963;51.444;6.528;2023-10-19T06:52:06;8.67;;;6.23;;
9848;SDS011;4963;51.444;6.528;2023-10-19T06:54:36;8.97;;;6.67;;
9848;SDS011;4963;51.444;6.528;2023-10-19T06:57:04;9.90;;;6.80;;
9848;SDS011;4963;51.444;6.528;2023-10-19T06:59:35;7.33;;;6.30;;
9848;SDS011;4963;51.444;6.528;2023-10-19T07:02:02;8.20;;;6.97;;
9848;SDS011;4963;51.444;6.528;2023-10-19T07:04:29;9.83;;;6.47;;
9848;SDS011;4963;51.444;6.528;2023-10-19T07:06:56;6.90;;;5.80;;
9848;SDS011;4963;51.444;6.528;2023-10-19T07:09:23;8.63;;;6.37;;
9848;SDS011;4963;51.444;6.528;2023-10-19T07:11:50;9.43;;;6.90;;
9848;SDS011;4963;51.444;6.528;2023-10-19T07:14:20;9.10;;;6.97;;
9848;SDS011;4963;51.444;6.528;2023-10-19T07:16:49;11.40;;;6.90;;
9848;SDS011;4963;51.444;6.528;2023-10-19T07:19:17;6.53;;;5.13;;
9848;SDS011;4963;51.444;6.528;2023-10-19T07:21:44;7.07;;;5.50;;
9848;SDS011;4963;51.444;6.528;2023-10-19T07:24:14;9.20;;;5.73;;
9848;SDS011;4963;51.444;6.528;2023-10-19T07:26:44;7.07;;;5.57;;
9848;SDS011;4963;51.444;6.528;2023-10-19T07:29:18;7.80;;;6.10;;
9848;SDS011;4963;51.444;6.528;2023-10-19T07:31:46;8.47;;;6.40;;
9848;SDS011;4963;51.444;6.528;2023-10-19T07:34:14;9.23;;;6.30;;
9848;SDS011;4963;51.444;6.528;2023-10-19T07:36:41;12.03;;;6.20;;
9848;SDS011;4963;51.444;6.528;2023-10-19T07:39:08;7.67;;;6.30;;
9848;SDS011;4963;51.444;6.528;2023-10-19T07:41:44;8.27;;;5.87;;
9848;SDS011;4963;51.444;6.528;2023-10-19T07:44:11;6.17;;;5.57;;
9848;SDS011;4963;51.444;6.528;2023-10-19T07:46:38;10.43;;;7.03;;
9848;SDS011;4963;51.444;6.528;2023-10-19T07:49:05;9.03;;;6.13;;
9848;SDS011;4963;51.444;6.528;2023-10-19T07:51:34;8.50;;;6.53;;
9848;SDS011;4963;51.444;6.528;2023-10-19T07:54:01;14.30;;;7.10;;
9848;SDS011;4963;51.444;6.528;2023-10-19T07:56:28;8.73;;;7.30;;
9848;SDS011;4963;51.444;6.528;2023-10-19T07:58:55;8.13;;;6.40;;
9848;SDS011;4963;51.444;6.528;2023-10-19T08:01:22;8.47;;;6.67;;
9848;SDS011;4963;51.444;6.528;2023-10-19T08:03:49;7.33;;;6.13;;
9848;SDS011;4963;51.444;6.528;2023-10-19T08:06:16;9.97;;;6.63;;
9848;SDS011;4963;51.444;6.528;2023-10-19T08:08:45;8.03;;;6.70;;
9848;SDS011;4963;51.444;6.528;2023-10-19T08:11:11;9.37;;;6.37;;
9848;SDS011;4963;51.444;6.528;2023-10-19T08:13:38;8.03;;;6.30;;
9848;SDS011;4963;51.444;6.528;2023-10-19T08:16:06;7.53;;;6.40;;
9848;SDS011;4963;51.444;6.528;2023-10-19T08:18:33;8.77;;;6.60;;
9848;SDS011;4963;51.444;6.528;2023-10-19T08:21:01;8.53;;;6.33;;
9848;SDS011;4963;51.444;6.528;2023-10-19T08:23:28;8.67;;;6.40;;
9848;SDS011;4963;51.444;6.528;2023-10-19T08:25:58;10.40;;;6.57;;
9848;SDS011;4963;51.444;6.528;2023-10-19T08:28:24;9.37;;;6.57;;
9848;SDS011;4963;51.444;6.528;2023-10-19T08:30:52;8.73;;;6.20;;
9848;SDS011;4963;51.444;6.528;2023-10-19T08:33:26;8.77;;;6.27;;
9848;SDS011;4963;51.444;6.528;2023-10-19T08:35:55;7.40;;;5.40;;
9848;SDS011;4963;51.444;6.528;2023-10-19T08:38:22;8.17;;;5.90;;
9848;SDS011;4963;51.444;6.528;2023-10-19T08:40:59;7.23;;;6.07;;
9848;SDS011;4963;51.444;6.528;2023-10-19T08:43:28;7.17;;;5.43;;
9848;SDS011;4963;51.444;6.528;2023-10-19T08:45:58;10.90;;;5.50;;
9848;SDS011;4963;51.444;6.528;2023-10-19T08:48:26;6.83;;;5.03;;
9848;SDS011;4963;51.444;6.528;2023-10-19T08:50:54;9.27;;;5.27;;
9848;SDS011;4963;51.444;6.528;2023-10-19T08:53:21;6.67;;;5.03;;
9848;SDS011;4963;51.444;6.528;2023-10-19T08:55:50;8.97;;;5.37;;
9848;SDS011;4963;51.444;6.528;2023-10-19T08:58:20;7.10;;;4.73;;
9848;SDS011;4963;51.444;6.528;2023-10-19T09:00:48;7.10;;;4.70;;
9848;SDS011;4963;51.444;6.528;2023-10-19T09:03:19;8.07;;;4.67;;
9848;SDS011;4963;51.444;6.528;2023-10-19T09:05:47;6.40;;;5.27;;
9848;SDS011;4963;51.444;6.528;2023-10-19T09:08:17;9.43;;;4.70;;
9848;SDS011;4963;51.444;6.528;2023-10-19T09:10:47;9.90;;;5.13;;
9848;SDS011;4963;51.444;6.528;2023-10-19T09:13:17;9.47;;;4.93;;
9848;SDS011;4963;51.444;6.528;2023-10-19T09:15:45;7.07;;;4.90;;
9848;SDS011;4963;51.444;6.528;2023-10-19T09:18:14;7.80;;;4.60;;
9848;SDS011;4963;51.444;6.528;2023-10-19T09:20:41;9.43;;;5.30;;
9848;SDS011;4963;51.444;6.528;2023-10-19T09:23:17;7.03;;;5.17;;
9848;SDS011;4963;51.444;6.528;2023-10-19T09:25:46;7.90;;;4.90;;
9848;SDS011;4963;51.444;6.528;2023-10-19T09:28:13;7.10;;;4.60;;
9848;SDS011;4963;51.444;6.528;2023-10-19T09:30:40;5.97;;;4.10;;
9848;SDS011;4963;51.444;6.528;2023-10-19T09:33:10;6.73;;;4.80;;
9848;SDS011;4963;51.444;6.528;2023-10-19T09:35:39;8.43;;;4.50;;
9848;SDS011;4963;51.444;6.528;2023-10-19T09:38:08;8.30;;;4.47;;
9848;SDS011;4963;51.444;6.528;2023-10-19T09:40:35;6.83;;;4.20;;
9848;SDS011;4963;51.444;6.528;2023-10-19T09:43:04;6.90;;;3.80;;
9848;SDS011;4963;51.444;6.528;2023-10-19T09:45:35;8.17;;;4.13;;
9848;SDS011;4963;51.444;6.528;2023-10-19T09:48:07;8.90;;;3.50;;
9848;SDS011;4963;51.444;6.528;2023-10-19T09:50:43;11.07;;;3.77;;
9848;SDS011;4963;51.444;6.528;2023-10-19T09:53:13;8.73;;;4.53;;
9848;SDS011;4963;51.444;6.528;2023-10-19T09:55:40;5.80;;;4.00;;
9848;SDS011;4963;51.444;6.528;2023-10-19T09:58:11;7.90;;;3.87;;
9848;SDS011;4963;51.444;6.528;2023-10-19T10:00:43;5.67;;;3.17;;
9848;SDS011;4963;51.444;6.528;2023-10-19T10:06:15;8.57;;;3.10;;
9848;SDS011;4963;51.444;6.528;2023-10-19T10:08:46;6.23;;;3.13;;
9848;SDS011;4963;51.444;6.528;2023-10-19T10:11:21;8.80;;;3.20;;
9848;SDS011;4963;51.444;6.528;2023-10-19T10:13:51;6.57;;;2.40;;
9848;SDS011;4963;51.444;6.528;2023-10-19T10:16:20;9.17;;;2.90;;
9848;SDS011;4963;51.444;6.528;2023-10-19T10:18:50;7.23;;;2.33;;
9848;SDS011;4963;51.444;6.528;2023-10-19T10:21:22;11.13;;;2.97;;
9848;SDS011;4963;51.444;6.528;2023-10-19T10:23:51;11.07;;;2.47;;
9848;SDS011;4963;51.444;6.528;2023-10-19T10:26:19;8.23;;;2.33;;
9848;SDS011;4963;51.444;6.528;2023-10-19T10:31:34;6.97;;;2.70;;
9848;SDS011;4963;51.444;6.528;2023-10-19T10:34:06;10.67;;;3.27;;
9848;SDS011;4963;51.444;6.528;2023-10-19T10:39:28;9.15;;;2.65;;
9848;SDS011;4963;51.444;6.528;2023-10-19T10:41:56;8.32;;;3.25;;
9848;SDS011;4963;51.444;6.528;2023-10-19T10:44:39;9.07;;;2.78;;
9848;SDS011;4963;51.444;6.528;2023-10-19T10:47:08;13.05;;;2.70;;
9848;SDS011;4963;51.444;6.528;2023-10-19T10:52:26;8.02;;;2.72;;
9848;SDS011;4963;51.444;6.528;2023-10-19T10:54:55;6.38;;;2.83;;
9848;SDS011;4963;51.444;6.528;2023-10-19T10:57:22;5.95;;;2.47;;
9848;SDS011;4963;51.444;6.528;2023-10-19T11:00:00;10.13;;;2.80;;
9848;SDS011;4963;51.444;6.528;2023-10-19T11:02:30;6.07;;;2.35;;
9848;SDS011;4963;51.444;6.528;2023-10-19T11:04:57;7.18;;;2.50;;
9848;SDS011;4963;51.444;6.528;2023-10-19T11:07:26;8.07;;;2.47;;
9848;SDS011;4963;51.444;6.528;2023-10-19T11:09:54;7.63;;;2.50;;
9848;SDS011;4963;51.444;6.528;2023-10-19T11:12:21;7.38;;;2.30;;
9848;SDS011;4963;51.444;6.528;2023-10-19T11:14:52;7.60;;;2.25;;
9848;SDS011;4963;51.444;6.528;2023-10-19T11:17:20;9.02;;;2.40;;
9848;SDS011;4963;51.444;6.528;2023-10-19T11:19:53;11.57;;;2.47;;
9848;SDS011;4963;51.444;6.528;2023-10-19T11:22:23;5.03;;;2.30;;
9848;SDS011;4963;51.444;6.528;2023-10-19T11:24:52;8.68;;;2.45;;
9848;SDS011;4963;51.444;6.528;2023-10-19T11:27:24;7.65;;;2.08;;
9848;SDS011;4963;51.444;6.528;2023-10-19T11:29:55;6.28;;;2.42;;
9848;SDS011;4963;51.444;6.528;2023-10-19T11:32:23;6.57;;;2.75;;
9848;SDS011;4963;51.444;6.528;2023-10-19T11:34:51;9.27;;;2.90;;
9848;SDS011;4963;51.444;6.528;2023-10-19T11:37:18;7.25;;;2.38;;
9848;SDS011;4963;51.444;6.528;2023-10-19T11:39:45;9.05;;;2.45;;
9848;SDS011;4963;51.444;6.528;2023-10-19T11:42:13;8.30;;;2.60;;
9848;SDS011;4963;51.444;6.528;2023-10-19T11:44:40;6.75;;;2.55;;
9848;SDS011;4963;51.444;6.528;2023-10-19T11:47:07;5.20;;;2.22;;
9848;SDS011;4963;51.444;6.528;2023-10-19T11:49:33;5.97;;;2.22;;
9848;SDS011;4963;51.444;6.528;2023-10-19T11:52:00;6.97;;;2.20;;
9848;SDS011;4963;51.444;6.528;2023-10-19T11:54:32;7.90;;;2.67;;
9848;SDS011;4963;51.444;6.528;2023-10-19T11:56:59;5.65;;;2.30;;
9848;SDS011;4963;51.444;6.528;2023-10-19T11:59:28;7.65;;;2.40;;
9848;SDS011;4963;51.444;6.528;2023-10-19T12:01:55;6.15;;;2.50;;
9848;SDS011;4963;51.444;6.528;2023-10-19T12:04:23;9.00;;;2.60;;
9848;SDS011;4963;51.444;6.528;2023-10-19T12:06:51;7.40;;;2.63;;
9848;SDS011;4963;51.444;6.528;2023-10-19T12:09:18;7.90;;;2.67;;
9848;SDS011;4963;51.444;6.528;2023-10-19T12:11:49;8.07;;;2.50;;
9848;SDS011;4963;51.444;6.528;2023-10-19T12:14:18;6.45;;;2.65;;
9848;SDS011;4963;51.444;6.528;2023-10-19T12:16:47;5.80;;;2.40;;
9848;SDS011;4963;51.444;6.528;2023-10-19T12:19:14;6.30;;;2.40;;
9848;SDS011;4963;51.444;6.528;2023-10-19T12:21:44;9.35;;;2.78;;
9848;SDS011;4963;51.444;6.528;2023-10-19T12:24:10;11.63;;;2.87;;
9848;SDS011;4963;51.444;6.528;2023-10-19T12:26:37;12.63;;;2.72;;
9848;SDS011;4963;51.444;6.528;2023-10-19T12:29:04;7.68;;;3.00;;
9848;SDS011;4963;51.444;6.528;2023-10-19T12:31:35;9.60;;;2.60;;
9848;SDS011;4963;51.444;6.528;2023-10-19T12:34:06;7.85;;;2.80;;
9848;SDS011;4963;51.444;6.528;2023-10-19T12:36:33;7.97;;;2.78;;
9848;SDS011;4963;51.444;6.528;2023-10-19T12:39:01;8.55;;;2.72;;
9848;SDS011;4963;51.444;6.528;2023-10-19T12:41:30;6.15;;;2.28;;
9848;SDS011;4963;51.444;6.528;2023-10-19T12:43:58;6.05;;;2.70;;
9848;SDS011;4963;51.444;6.528;2023-10-19T12:46:27;8.50;;;2.77;;
9848;SDS011;4963;51.444;6.528;2023-10-19T12:48:54;7.47;;;2.90;;
9848;SDS011;4963;51.444;6.528;2023-10-19T12:51:24;7.25;;;2.85;;
9848;SDS011;4963;51.444;6.528;2023-10-19T12:53:51;11.13;;;3.13;;
9848;SDS011;4963;51.444;6.528;2023-10-19T12:56:18;11.65;;;3.17;;
9848;SDS011;4963;51.444;6.528;2023-10-19T12:58:45;5.95;;;2.60;;
9848;SDS011;4963;51.444;6.528;2023-10-19T13:01:13;7.38;;;2.70;;
9848;SDS011;4963;51.444;6.528;2023-10-19T13:03:42;12.13;;;3.47;;
9848;SDS011;4963;51.444;6.528;2023-10-19T13:06:10;15.60;;;2.70;;
9848;SDS011;4963;51.444;6.528;2023-10-19T13:08:38;9.13;;;2.70;;
9848;SDS011;4963;51.444;6.528;2023-10-19T13:11:05;6.15;;;2.30;;
9848;SDS011;4963;51.444;6.528;2023-10-19T13:13:33;7.38;;;2.95;;
9848;SDS011;4963;51.444;6.528;2023-10-19T13:16:01;5.47;;;2.38;;
9848;SDS011;4963;51.444;6.528;2023-10-19T13:18:30;8.63;;;3.05;;
9848;SDS011;4963;51.444;6.528;2023-10-19T13:20:59;9.02;;;2.70;;
9848;SDS011;4963;51.444;6.528;2023-10-19T13:23:29;6.80;;;3.00;;
9848;SDS011;4963;51.444;6.528;2023-10-19T13:25:59;9.50;;;3.10;;
9848;SDS011;4963;51.444;6.528;2023-10-19T13:28:42;10.13;;;2.75;;
9848;SDS011;4963;51.444;6.528;2023-10-19T13:31:09;9.13;;;2.90;;
9848;SDS011;4963;51.444;6.528;2023-10-19T13:33:38;8.73;;;2.90;;
9848;SDS011;4963;51.444;6.528;2023-10-19T13:36:06;5.93;;;2.63;;
9848;SDS011;4963;51.444;6.528;2023-10-19T13:38:33;7.43;;;2.92;;
9848;SDS011;4963;51.444;6.528;2023-10-19T13:41:03;8.93;;;2.83;;
9848;SDS011;4963;51.444;6.528;2023-10-19T13:43:34;9.10;;;3.07;;
9848;SDS011;4963;51.444;6.528;2023-10-19T13:46:01;11.27;;;3.53;;
9848;SDS011;4963;51.444;6.528;2023-10-19T13:48:29;8.57;;;2.72;;
9848;SDS011;4963;51.444;6.528;2023-10-19T13:50:57;10.55;;;3.08;;
9848;SDS011;4963;51.444;6.528;2023-10-19T13:53:30;9.00;;;3.33;;
9848;SDS011;4963;51.444;6.528;2023-10-19T13:55:57;9.10;;;3.20;;
9848;SDS011;4963;51.444;6.528;2023-10-19T13:58:25;9.68;;;2.90;;
9848;SDS011;4963;51.444;6.528;2023-10-19T14:00:53;12.07;;;3.15;;
9848;SDS011;4963;51.444;6.528;2023-10-19T14:03:20;10.07;;;3.00;;
9848;SDS011;4963;51.444;6.528;2023-10-19T14:05:47;9.30;;;3.20;;
9848;SDS011;4963;51.444;6.528;2023-10-19T14:08:15;9.83;;;3.10;;
9848;SDS011;4963;51.444;6.528;2023-10-19T14:10:42;8.90;;;3.90;;
9848;SDS011;4963;51.444;6.528;2023-10-19T14:13:09;7.97;;;2.80;;
9848;SDS011;4963;51.444;6.528;2023-10-19T14:15:38;12.05;;;3.75;;
9848;SDS011;4963;51.444;6.528;2023-10-19T14:18:05;8.32;;;3.03;;
9848;SDS011;4963;51.444;6.528;2023-10-19T14:20:32;10.43;;;3.42;;
9848;SDS011;4963;51.444;6.528;2023-10-19T14:23:00;12.52;;;3.88;;
9848;SDS011;4963;51.444;6.528;2023-10-19T14:25:29;8.63;;;3.50;;
9848;SDS011;4963;51.444;6.528;2023-10-19T14:27:57;10.15;;;4.13;;
9848;SDS011;4963;51.444;6.528;2023-10-19T14:30:25;8.97;;;3.50;;
9848;SDS011;4963;51.444;6.528;2023-10-19T14:32:54;7.43;;;3.20;;
9848;SDS011;4963;51.444;6.528;2023-10-19T14:35:22;12.90;;;3.60;;
9848;SDS011;4963;51.444;6.528;2023-10-19T14:37:50;7.30;;;2.93;;
9848;SDS011;4963;51.444;6.528;2023-10-19T14:40:21;8.03;;;3.10;;
9848;SDS011;4963;51.444;6.528;2023-10-19T14:42:50;13.40;;;4.00;;
9848;SDS011;4963;51.444;6.528;2023-10-19T14:45:19;8.23;;;2.70;;
9848;SDS011;4963;51.444;6.528;2023-10-19T14:47:50;9.60;;;2.80;;
9848;SDS011;4963;51.444;6.528;2023-10-19T14:50:21;7.93;;;3.70;;
9848;SDS011;4963;51.444;6.528;2023-10-19T14:52:49;8.73;;;3.13;;
9848;SDS011;4963;51.444;6.528;2023-10-19T14:55:17;9.53;;;2.80;;
9848;SDS011;4963;51.444;6.528;2023-10-19T14:57:44;8.47;;;3.10;;
9848;SDS011;4963;51.444;6.528;2023-10-19T15:00:14;10.65;;;3.83;;
9848;SDS011;4963;51.444;6.528;2023-10-19T15:02:47;7.73;;;3.27;;
9848;SDS011;4963;51.444;6.528;2023-10-19T15:05:15;7.60;;;3.20;;
9848;SDS011;4963;51.444;6.528;2023-10-19T15:07:45;7.73;;;3.20;;
9848;SDS011;4963;51.444;6.528;2023-10-19T15:10:17;8.07;;;3.37;;
9848;SDS011;4963;51.444;6.528;2023-10-19T15:12:45;9.80;;;4.22;;
9848;SDS011;4963;51.444;6.528;2023-10-19T15:15:12;6.82;;;3.30;;
9848;SDS011;4963;51.444;6.528;2023-10-19T15:17:40;7.33;;;2.80;;
9848;SDS011;4963;51.444;6.528;2023-10-19T15:20:08;8.83;;;2.73;;
9848;SDS011;4963;51.444;6.528;2023-10-19T15:22:37;7.57;;;2.97;;
9848;SDS011;4963;51.444;6.528;2023-10-19T15:25:06;6.33;;;3.27;;
9848;SDS011;4963;51.444;6.528;2023-10-19T15:27:33;9.13;;;3.03;;
9848;SDS011;4963;51.444;6.528;2023-10-19T15:30:00;8.05;;;3.17;;
9848;SDS011;4963;51.444;6.528;2023-10-19T15:32:28;7.30;;;2.93;;
9848;SDS011;4963;51.444;6.528;2023-10-19T15:34:55;6.83;;;3.43;;